createdAt,value
2019-04-10T00:02:37.589Z,17.87
2019-04-10T00:05:21.105Z,17.30
2019-04-10T00:08:04.068Z,15.95
2019-04-10T00:10:54.249Z,18.23
2019-04-10T00:13:36.550Z,16.52
2019-04-10T00:16:27.802Z,17.62
2019-04-10T00:19:11.357Z,17.17
2019-04-10T00:21:53.924Z,18.77
2019-04-10T00:24:36.255Z,17.55
2019-04-10T00:27:20.551Z,17.92
2019-04-10T00:30:03.311Z,18.42
2019-04-10T00:32:54.450Z,19.25
2019-04-10T00:35:31.695Z,19.92
2019-04-10T00:38:21.855Z,21.12
2019-04-10T00:41:04.190Z,20.27
2019-04-10T00:43:46.818Z,18.17
2019-04-10T00:46:30.460Z,20.12
2019-04-10T00:49:20.452Z,20.20
2019-04-10T00:51:57.520Z,21.10
2019-04-10T00:54:48.965Z,23.05
2019-04-10T00:57:25.465Z,20.60
2019-04-10T01:00:15.615Z,22.55
2019-04-10T01:02:58.915Z,22.10
2019-04-10T01:05:41.691Z,20.05
2019-04-10T01:08:24.501Z,23.20
2019-04-10T01:11:13.298Z,21.75
2019-04-10T01:13:50.120Z,22.30
2019-04-10T01:16:40.591Z,21.97
2019-04-10T01:19:17.539Z,28.05
2019-04-10T01:22:07.090Z,26.52
2019-04-10T01:24:43.946Z,24.55
2019-04-10T01:27:34.107Z,29.70
2019-04-10T01:30:24.296Z,23.62
2019-04-10T01:33:14.479Z,28.35
2019-04-10T01:35:51.239Z,26.85
2019-04-10T01:38:39.935Z,27.00
2019-04-10T01:44:17.192Z,29.75
2019-04-10T01:47:13.450Z,27.17
2019-04-10T01:50:02.770Z,33.20
2019-04-10T01:52:39.382Z,31.73
2019-04-10T01:55:31.236Z,29.32
2019-04-10T01:58:14.875Z,34.08
2019-04-10T02:01:12.638Z,34.78
2019-04-10T02:03:49.941Z,31.27
2019-04-10T02:06:39.141Z,31.27
2019-04-10T02:09:23.363Z,33.88
2019-04-10T02:12:12.907Z,37.53
2019-04-10T02:14:56.572Z,34.83
2019-04-10T02:17:39.191Z,34.08
2019-04-10T02:20:21.414Z,33.45
2019-04-10T02:23:04.174Z,32.48
2019-04-10T02:25:47.228Z,34.50
2019-04-10T02:28:29.765Z,33.45
2019-04-10T02:31:12.533Z,35.65
2019-04-10T02:33:57.307Z,33.88
2019-04-10T02:36:39.956Z,35.13
2019-04-10T02:39:29.767Z,34.15
2019-04-10T02:42:08.218Z,37.23
2019-04-10T02:44:44.078Z,36.20
2019-04-10T02:47:33.004Z,35.52
2019-04-10T02:50:16.566Z,38.08
2019-04-10T02:53:07.791Z,37.10
2019-04-10T02:55:51.581Z,35.78
2019-04-10T02:58:42.666Z,36.88
2019-04-10T03:01:25.339Z,36.23
2019-04-10T03:04:14.273Z,39.42
2019-04-10T03:06:57.615Z,38.40
2019-04-10T03:10:00.499Z,38.20
2019-04-10T03:12:32.324Z,36.20
2019-04-10T03:15:29.691Z,36.15
2019-04-10T03:18:19.003Z,38.65
2019-04-10T03:21:08.962Z,37.03
2019-04-10T03:24:06.082Z,39.10
2019-04-10T03:26:56.101Z,36.75
2019-04-10T03:29:31.938Z,36.60
2019-04-10T03:32:47.719Z,41.18
2019-04-10T03:35:49.557Z,38.75
2019-04-10T03:38:55.450Z,36.83
2019-04-10T03:41:36.614Z,38.23
2019-04-10T03:44:20.737Z,37.50
2019-04-10T03:47:17.495Z,39.70
2019-04-10T03:50:06.739Z,42.20
2019-04-10T03:52:43.307Z,42.60
2019-04-10T03:55:32.721Z,44.58
2019-04-10T03:58:09.357Z,47.73
2019-04-10T04:01:00.758Z,44.15
2019-04-10T04:03:44.719Z,43.90
2019-04-10T04:06:41.883Z,43.63
2019-04-10T04:09:31.381Z,43.13
2019-04-10T04:12:08.374Z,43.52
2019-04-10T04:14:57.440Z,38.42
2019-04-10T04:20:23.175Z,37.58
2019-04-10T04:22:59.178Z,28.10
2019-04-10T04:25:49.119Z,25.82
2019-04-10T04:28:25.810Z,22.52
2019-04-10T04:31:22.788Z,24.32
2019-04-10T04:34:19.088Z,26.40
2019-04-10T04:37:09.941Z,29.63
2019-04-10T04:39:45.866Z,28.62
2019-04-10T04:42:35.202Z,28.55
2019-04-10T04:45:17.794Z,30.85
2019-04-10T04:48:05.789Z,28.02
2019-04-10T04:50:41.976Z,26.97
2019-04-10T04:53:30.568Z,27.80
2019-04-10T04:56:07.401Z,30.27
2019-04-10T04:58:57.302Z,28.35
2019-04-10T05:01:33.038Z,28.80
2019-04-10T05:04:21.282Z,34.90
2019-04-10T05:06:59.856Z,33.92
2019-04-10T05:09:48.835Z,35.48
2019-04-10T05:12:26.221Z,32.05
2019-04-10T05:15:16.463Z,35.13
2019-04-10T05:17:59.771Z,37.13
2019-04-10T05:20:56.666Z,37.93
2019-04-10T05:23:45.650Z,38.48
2019-04-10T05:26:27.942Z,37.88
2019-04-10T05:29:18.180Z,42.83
2019-04-10T05:32:00.956Z,42.27
2019-04-10T05:34:57.275Z,45.03
2019-04-10T05:37:54.077Z,46.28
2019-04-10T05:40:50.796Z,41.28
2019-04-10T05:43:46.801Z,38.85
2019-04-10T05:46:42.950Z,40.35
2019-04-10T05:49:39.136Z,43.17
2019-04-10T05:52:35.414Z,42.83
2019-04-10T05:55:24.687Z,43.85
2019-04-10T05:58:01.670Z,40.50
2019-04-10T06:00:51.472Z,41.42
2019-04-10T06:03:28.288Z,44.70
2019-04-10T06:06:17.108Z,41.42
2019-04-10T06:11:42.990Z,40.90
2019-04-10T06:14:19.244Z,45.10
2019-04-10T06:17:08.287Z,47.50
2019-04-10T06:19:44.875Z,44.33
2019-04-10T06:22:35.077Z,44.53
2019-04-10T06:25:13.954Z,42.05
2019-04-10T06:28:05.275Z,39.90
2019-04-10T06:30:48.126Z,43.43
2019-04-10T06:33:29.926Z,38.73
2019-04-10T06:36:13.593Z,40.78
2019-04-10T06:38:56.291Z,36.08
2019-04-10T06:41:39.736Z,38.95
2019-04-10T06:44:21.938Z,34.33
2019-04-10T06:47:11.928Z,39.20
2019-04-10T06:49:55.474Z,40.00
2019-04-10T06:52:37.286Z,36.50
2019-04-10T06:55:19.918Z,39.30
2019-04-10T06:58:09.630Z,39.58
2019-04-10T07:00:51.054Z,38.73
2019-04-10T07:03:49.515Z,38.23
2019-04-10T07:06:17.623Z,35.88
2019-04-10T07:09:05.462Z,31.90
2019-04-10T07:11:54.445Z,36.13
2019-04-10T07:14:43.884Z,32.48
2019-04-10T07:17:18.026Z,32.40
2019-04-10T07:20:07.504Z,31.62
2019-04-10T07:22:51.161Z,27.42
2019-04-10T07:25:35.362Z,28.42
2019-04-10T07:28:17.914Z,27.50
2019-04-10T07:31:04.997Z,32.15
2019-04-10T07:33:45.144Z,28.02
2019-04-10T07:36:39.961Z,27.40
2019-04-10T07:39:21.426Z,24.65
2019-04-10T07:42:11.788Z,27.02
2019-04-10T07:44:47.825Z,25.57
2019-04-10T07:47:38.404Z,26.25
2019-04-10T07:50:16.139Z,21.65
2019-04-10T07:53:06.459Z,23.80
2019-04-10T07:55:55.118Z,23.60
2019-04-10T07:58:35.498Z,21.65
2019-04-10T08:01:12.124Z,22.02
2019-04-10T08:04:01.795Z,16.48
2019-04-10T08:06:37.918Z,19.52
2019-04-10T08:09:26.945Z,19.30
2019-04-10T08:12:05.182Z,17.07
2019-04-10T08:14:54.874Z,14.10
2019-04-10T08:17:30.566Z,17.65
2019-04-10T08:20:20.305Z,14.73
2019-04-10T08:22:57.349Z,17.67
2019-04-10T08:25:47.449Z,19.75
2019-04-10T08:28:24.107Z,17.87
2019-04-10T08:31:13.074Z,16.95
2019-04-10T08:33:48.690Z,19.32
2019-04-10T08:36:37.886Z,17.23
2019-04-10T08:39:36.027Z,18.48
2019-04-10T08:42:12.682Z,15.68
2019-04-10T08:45:02.946Z,16.75
2019-04-10T08:47:46.116Z,18.05
2019-04-10T08:50:34.471Z,14.30
2019-04-10T08:56:12.888Z,13.83
2019-04-10T08:59:09.677Z,14.50
2019-04-10T09:01:59.818Z,14.85
2019-04-10T09:04:37.017Z,17.00
2019-04-10T09:07:26.360Z,14.83
2019-04-10T09:10:03.765Z,16.60
2019-04-10T09:13:00.039Z,15.55
2019-04-10T09:15:56.228Z,11.35
2019-04-10T09:18:53.813Z,15.95
2019-04-10T09:21:50.122Z,17.75
2019-04-10T09:24:46.707Z,18.77
2019-04-10T09:27:42.901Z,18.12
2019-04-10T09:30:38.788Z,18.23
2019-04-10T09:33:30.793Z,20.88
2019-04-10T09:36:13.367Z,19.30
2019-04-10T09:39:05.271Z,23.83
2019-04-10T09:41:48.762Z,25.27
2019-04-10T09:44:37.999Z,27.27
2019-04-10T09:47:14.390Z,26.48
2019-04-10T09:50:03.602Z,32.95
2019-04-10T09:52:40.292Z,27.40
2019-04-10T09:55:29.843Z,29.12
2019-04-10T09:58:06.563Z,27.67
2019-04-10T10:00:56.492Z,27.52
2019-04-10T10:03:32.620Z,28.77
2019-04-10T10:06:26.096Z,30.92
2019-04-10T10:08:58.770Z,26.62
2019-04-10T10:11:49.152Z,28.47
2019-04-10T10:14:24.814Z,28.35
2019-04-10T10:17:14.806Z,29.20
2019-04-10T10:19:57.936Z,28.12
2019-04-10T10:22:47.460Z,26.07
2019-04-10T10:25:24.874Z,26.82
2019-04-10T10:28:15.202Z,27.40
2019-04-10T10:30:58.500Z,29.57
2019-04-10T10:33:48.032Z,30.23
2019-04-10T10:36:39.589Z,29.35
2019-04-10T10:39:17.272Z,31.82
2019-04-10T10:42:09.499Z,31.57
2019-04-10T10:44:45.958Z,33.20
2019-04-10T10:47:36.001Z,31.02
2019-04-10T10:50:13.104Z,32.03
2019-04-10T10:53:02.224Z,30.72
2019-04-10T10:55:38.531Z,28.85
2019-04-10T10:58:28.057Z,35.40
2019-04-10T11:01:05.342Z,36.58
2019-04-10T11:03:54.749Z,32.45
2019-04-10T11:06:55.266Z,36.85
2019-04-10T11:09:23.918Z,36.17
2019-04-10T11:12:12.288Z,41.42
2019-04-10T11:17:38.471Z,36.83
2019-04-10T11:20:17.635Z,35.38
2019-04-10T11:23:06.917Z,32.45
2019-04-10T11:25:44.571Z,34.75
2019-04-10T11:28:33.842Z,33.63
2019-04-10T11:31:11.065Z,34.33
2019-04-10T11:34:00.057Z,35.08
2019-04-10T11:36:36.863Z,33.95
2019-04-10T11:39:28.791Z,36.05
2019-04-10T11:42:06.891Z,35.92
2019-04-10T11:44:59.222Z,33.28
2019-04-10T11:47:36.801Z,32.45
2019-04-10T11:50:28.526Z,30.32
2019-04-10T11:53:11.098Z,21.80
2019-04-10T11:56:05.200Z,24.65
2019-04-10T11:58:48.646Z,19.32
2019-04-10T12:01:30.957Z,12.82
2019-04-10T12:04:10.123Z,19.62
2019-04-10T12:07:01.279Z,23.62
2019-04-10T12:12:27.898Z,21.90
2019-04-10T12:15:10.776Z,20.17
2019-04-10T12:18:02.332Z,20.88
2019-04-10T12:20:38.779Z,19.98
2019-04-10T12:23:27.649Z,25.95
2019-04-10T12:26:10.161Z,20.57
2019-04-10T12:28:58.552Z,24.20
2019-04-10T12:31:41.926Z,20.75
2019-04-10T12:34:38.598Z,24.25
2019-04-10T12:37:35.218Z,24.87
2019-04-10T12:40:25.288Z,22.65
2019-04-10T12:43:01.091Z,25.40
2019-04-10T12:45:50.687Z,21.90
2019-04-10T12:48:34.690Z,23.87
2019-04-10T12:51:31.893Z,26.10
2019-04-10T12:54:23.776Z,24.02
2019-04-10T12:56:59.923Z,31.73
2019-04-10T12:59:50.096Z,37.17
2019-04-10T13:02:28.082Z,43.92
2019-04-10T13:05:25.123Z,37.30
2019-04-10T13:08:25.670Z,38.28
2019-04-10T13:11:18.470Z,33.63
2019-04-10T13:14:14.737Z,24.20
2019-04-10T13:17:10.675Z,25.68
2019-04-10T13:19:59.791Z,30.37
2019-04-10T13:25:32.125Z,27.50
2019-04-10T13:28:09.737Z,29.42
2019-04-10T13:30:59.605Z,30.90
2019-04-10T13:33:37.004Z,29.60
2019-04-10T13:36:27.196Z,31.33
2019-04-10T13:39:05.337Z,29.67
2019-04-10T13:41:54.008Z,26.30
2019-04-10T13:47:19.547Z,30.35
2019-04-10T13:49:56.036Z,27.50
2019-04-10T13:52:49.621Z,28.67
2019-04-10T13:55:24.597Z,29.63
2019-04-10T13:58:07.507Z,27.90
2019-04-10T14:01:03.982Z,30.52
2019-04-10T14:03:54.453Z,27.55
2019-04-10T14:06:30.292Z,27.00
2019-04-10T14:09:34.937Z,29.52
2019-04-10T14:12:06.047Z,27.30
2019-04-10T14:14:48.921Z,34.00
2019-04-10T14:22:57.882Z,26.50
2019-04-10T14:25:53.990Z,26.87
2019-04-10T14:28:45.276Z,25.45
2019-04-10T14:31:36.275Z,24.65
2019-04-10T14:34:18.867Z,23.85
2019-04-10T14:37:05.572Z,26.70
2019-04-10T14:39:47.835Z,23.80
2019-04-10T14:42:38.435Z,23.90
2019-04-10T14:45:21.423Z,24.37
2019-04-10T14:48:05.754Z,21.25
2019-04-10T14:50:54.958Z,22.27
2019-04-10T14:53:31.180Z,14.03
2019-04-10T14:56:20.241Z,16.02
2019-04-10T14:58:56.005Z,15.40
2019-04-10T15:01:46.262Z,15.65
2019-04-10T15:04:22.907Z,13.30
2019-04-10T15:07:12.302Z,10.68
2019-04-10T15:09:48.358Z,10.40
2019-04-10T15:12:39.480Z,9.33
2019-04-10T15:15:17.204Z,9.15
2019-04-10T15:18:06.641Z,9.78
2019-04-10T15:20:49.381Z,8.73
2019-04-10T15:23:39.617Z,7.85
2019-04-10T15:26:16.310Z,9.20
2019-04-10T15:29:05.829Z,9.23
2019-04-10T15:31:41.989Z,9.28
2019-04-10T15:34:32.138Z,10.28
2019-04-10T15:37:08.927Z,11.48
2019-04-10T15:40:12.257Z,10.25
2019-04-10T15:43:01.358Z,18.62
2019-04-10T15:45:50.429Z,10.78
2019-04-10T15:48:33.608Z,9.65
2019-04-10T15:51:16.204Z,14.55
2019-04-10T15:54:05.747Z,16.48
2019-04-10T15:56:49.923Z,11.53
2019-04-10T15:59:34.394Z,9.40
2019-04-10T16:02:17.428Z,8.35
2019-04-10T16:05:07.612Z,6.03
2019-04-10T16:07:53.082Z,5.83
2019-04-10T16:10:47.699Z,5.87
2019-04-10T16:13:44.282Z,6.05
2019-04-10T16:16:42.262Z,7.62
2019-04-10T16:19:34.609Z,7.72
2019-04-10T16:22:27.553Z,6.17
2019-04-10T16:25:07.071Z,7.47
2019-04-10T16:27:57.670Z,10.28
2019-04-10T16:30:34.960Z,9.43
2019-04-10T16:33:27.315Z,9.05
2019-04-10T16:36:12.699Z,7.37
2019-04-10T16:39:02.980Z,8.75
2019-04-10T16:41:54.486Z,9.63
2019-04-10T16:44:44.280Z,6.80
2019-04-10T16:47:26.855Z,7.28
2019-04-10T16:50:21.917Z,7.30
2019-04-10T16:53:18.267Z,8.20
2019-04-10T16:56:07.386Z,7.05
2019-04-10T16:58:44.443Z,8.18
2019-04-10T17:01:35.042Z,9.25
2019-04-10T17:04:18.962Z,7.12
2019-04-10T17:07:15.041Z,7.72
2019-04-10T17:10:24.417Z,5.80
2019-04-10T17:13:18.336Z,5.87
2019-04-10T17:16:13.573Z,4.80
2019-04-10T17:19:09.715Z,4.87
2019-04-10T17:22:00.546Z,5.10
2019-04-10T17:24:43.040Z,3.58
2019-04-10T17:27:27.960Z,5.50
2019-04-10T17:30:13.805Z,4.65
2019-04-10T17:32:57.308Z,5.80
2019-04-10T17:35:40.287Z,4.90
2019-04-10T17:38:24.502Z,5.55
2019-04-10T17:41:21.871Z,4.80
2019-04-10T17:44:18.019Z,3.87
2019-04-10T17:47:14.500Z,4.80
2019-04-10T17:50:03.743Z,6.62
2019-04-10T17:52:47.302Z,6.83
2019-04-10T17:55:36.434Z,6.85
2019-04-10T17:58:14.259Z,5.72
2019-04-10T18:01:05.019Z,5.47
2019-04-10T18:03:53.113Z,6.45
2019-04-10T18:06:45.957Z,5.47
2019-04-10T18:09:41.747Z,144.95
2019-04-10T18:12:32.166Z,6.95
2019-04-10T18:15:08.192Z,6.80
2019-04-10T18:17:57.646Z,6.25
2019-04-10T18:20:33.827Z,7.65
2019-04-10T18:23:23.588Z,6.58
2019-04-10T18:26:00.534Z,9.23
2019-04-10T18:28:54.674Z,8.05
2019-04-10T18:31:38.955Z,6.97
2019-04-10T18:34:33.354Z,7.87
2019-04-10T18:37:20.683Z,7.00
2019-04-10T18:40:14.903Z,6.67
2019-04-10T18:43:13.051Z,9.48
2019-04-10T18:46:13.459Z,9.38
2019-04-10T18:49:07.706Z,7.83
2019-04-10T18:52:05.299Z,8.43
2019-04-10T18:54:56.931Z,7.25
2019-04-10T18:57:41.073Z,6.58
2019-04-10T19:00:56.675Z,8.95
2019-04-10T19:04:02.254Z,11.78
2019-04-10T19:06:46.758Z,27.73
2019-04-10T19:09:38.962Z,12.53
2019-04-10T19:12:14.933Z,39.38
2019-04-10T19:15:04.480Z,11.55
2019-04-10T19:17:47.106Z,15.00
2019-04-10T19:20:43.265Z,15.15
2019-04-10T19:23:33.521Z,14.63
2019-04-10T19:26:18.976Z,18.48
2019-04-10T19:29:01.677Z,17.15
2019-04-10T19:31:46.277Z,12.98
2019-04-10T19:34:29.519Z,11.30
2019-04-10T19:37:12.380Z,13.43
2019-04-10T19:39:48.753Z,12.07
2019-04-10T19:42:37.651Z,9.73
2019-04-10T19:45:34.657Z,9.78
2019-04-10T19:48:31.127Z,10.53
2019-04-10T19:51:27.964Z,11.35
2019-04-10T19:54:24.124Z,13.70
2019-04-10T19:57:19.355Z,12.75
2019-04-10T20:00:16.606Z,14.90
2019-04-10T20:03:13.161Z,12.07
2019-04-10T20:06:09.082Z,13.28
2019-04-10T20:09:06.342Z,12.98
2019-04-10T20:12:02.489Z,15.03
2019-04-10T20:14:51.654Z,16.30
2019-04-10T20:17:28.277Z,13.75
2019-04-10T20:20:19.377Z,13.88
2019-04-10T20:23:02.541Z,14.45
2019-04-10T20:25:58.848Z,13.78
2019-04-10T20:28:48.295Z,17.27
2019-04-10T20:31:29.026Z,15.60
2019-04-10T20:34:19.128Z,15.10
2019-04-10T20:37:07.665Z,15.10
2019-04-10T20:39:53.782Z,17.03
2019-04-10T20:42:30.309Z,17.42
2019-04-10T20:45:19.208Z,18.00
2019-04-10T20:50:45.020Z,20.40
2019-04-10T20:53:28.294Z,20.95
2019-04-10T20:56:18.323Z,19.00
2019-04-10T20:58:54.855Z,17.87
2019-04-10T21:01:43.341Z,19.82
2019-04-10T21:04:27.396Z,18.70
2019-04-10T21:07:25.490Z,16.65
2019-04-10T21:10:15.185Z,15.80
2019-04-10T21:12:59.673Z,13.40
2019-04-10T21:15:42.375Z,14.53
2019-04-10T21:18:32.099Z,14.10
2019-04-10T21:21:08.665Z,12.35
2019-04-10T21:23:57.991Z,13.03
2019-04-10T21:26:40.943Z,12.75
2019-04-10T21:29:42.370Z,11.22
2019-04-10T21:32:41.495Z,14.05
2019-04-10T21:35:29.689Z,11.15
2019-04-10T21:38:13.182Z,14.07
2019-04-10T21:41:02.565Z,13.85
2019-04-10T21:43:45.951Z,13.48
2019-04-10T21:46:41.761Z,13.78
2019-04-10T21:49:38.037Z,14.35
2019-04-10T21:52:34.801Z,14.93
2019-04-10T21:55:31.125Z,15.70
2019-04-10T21:58:26.862Z,15.65
2019-04-10T22:01:24.249Z,15.58
2019-04-10T22:04:14.721Z,16.27
2019-04-10T22:07:05.527Z,17.98
2019-04-10T22:09:56.535Z,18.42
2019-04-10T22:12:45.468Z,17.77
2019-04-10T22:15:39.294Z,18.20
2019-04-10T22:18:21.909Z,17.77
2019-04-10T22:21:17.293Z,18.15
2019-04-10T22:24:07.368Z,16.02
2019-04-10T22:26:50.316Z,17.95
2019-04-10T22:29:47.050Z,20.77
2019-04-10T22:32:35.497Z,19.32
2019-04-10T22:35:13.130Z,17.07
2019-04-10T22:38:02.613Z,18.85
2019-04-10T22:40:40.052Z,20.05
2019-04-10T22:43:30.118Z,19.20
2019-04-10T22:46:13.086Z,20.23
2019-04-10T22:49:10.324Z,19.15
2019-04-10T22:52:06.984Z,19.55
2019-04-10T22:54:57.252Z,18.10
2019-04-10T22:57:41.570Z,19.82
2019-04-10T23:00:32.855Z,19.55
2019-04-10T23:03:15.974Z,18.75
2019-04-10T23:06:06.953Z,20.30
2019-04-10T23:08:44.040Z,19.25
2019-04-10T23:11:39.076Z,21.17
2019-04-10T23:14:10.504Z,20.12
2019-04-10T23:17:00.177Z,22.80
2019-04-10T23:19:42.973Z,19.52
2019-04-10T23:22:31.680Z,18.82
2019-04-10T23:25:07.957Z,18.67
2019-04-10T23:27:56.953Z,21.85
2019-04-10T23:30:35.096Z,23.55
2019-04-10T23:33:26.056Z,21.62
2019-04-10T23:36:09.686Z,22.90
2019-04-10T23:38:59.706Z,28.32
2019-04-10T23:41:43.142Z,23.30
2019-04-10T23:44:39.366Z,27.85
2019-04-10T23:47:35.936Z,27.45
2019-04-10T23:50:32.442Z,26.55
2019-04-10T23:53:28.908Z,28.87
2019-04-10T23:56:18.018Z,27.60
2019-04-10T23:58:56.110Z,26.45
